Terminal Aerodrome Forecast
Issued by NWS

Home | Current Version | Previous Version | Text Only | Print | Product List | Glossary On
Versions: 1 2 3 4 5 6 7 8 9 10 11 12 13 14 15 16 17 18
000
FTUS43 KMPX 212000 AAA
TAFAXN
TAF AMD
KAXN 212033Z 2121/2218 16012KT 3SM BR OVC003
     FM220100 15012KT 1 1/2SM BR OVC002
     FM220800 13014KT 1/2SM -DZ FG VV001
     FM221500 12012KT 1SM -RASN BR OVC004=

USA.gov is the U.S. government's official web portal to all federal, state and local government web resources and services.